Time;durP1;ratioP1;P1;durP2;ratioP2;P2;SDS_P1;SDS_P2;PMS_P1;PMS_P2;Temp;Humidity;BMP_temperature;BMP_pressure;BME280_temperature;BME280_humidity;BME280_pressure;Samples;Min_cycle;Max_cycle;Signal;HPM_P1;HPM_P2
2022/10/17 06:48:01;;;;;;;4.90;4.50;;;;;;;;;;6218690;23;20567;-74
2022/10/17 06:50:41;;;;;;;6.07;5.25;;;;;;;;;;6211220;23;20035;-74
2022/10/17 06:53:29;;;;;;;4.97;4.57;;;;;;;;;;6212931;23;20009;-75
2022/10/17 06:56:13;;;;;;;6.30;5.03;;;;;;;;;;6212499;23;20067;-75
2022/10/17 06:58:59;;;;;;;5.75;5.15;;;;;;;;;;6189328;23;20419;-74
2022/10/17 07:01:33;;;;;;;9.15;5.28;;;;;;;;;;6215122;23;20021;-74
2022/10/17 07:04:01;;;;;;;5.57;5.07;;;;;;;;;;6188652;23;20063;-74
2022/10/17 07:06:28;;;;;;;5.60;5.03;;;;;;;;;;6188533;23;20020;-73
2022/10/17 07:08:58;;;;;;;5.88;5.28;;;;;;;;;;6189179;23;20020;-74
2022/10/17 07:11:24;;;;;;;5.85;5.03;;;;;;;;;;6188539;23;20372;-73
2022/10/17 07:13:51;;;;;;;11.32;6.00;;;;;;;;;;6215484;23;20009;-75
2022/10/17 07:16:20;;;;;;;12.32;5.45;;;;;;;;;;6217108;23;20505;-75
2022/10/17 07:18:50;;;;;;;5.18;4.78;;;;;;;;;;6188939;23;20008;-75
2022/10/17 07:21:16;;;;;;;5.88;5.40;;;;;;;;;;6189705;23;20008;-74
2022/10/17 07:23:42;;;;;;;10.02;4.97;;;;;;;;;;6215771;23;20009;-77
2022/10/17 07:26:09;;;;;;;7.72;5.72;;;;;;;;;;6215019;23;20016;-74
2022/10/17 07:28:37;;;;;;;7.03;4.78;;;;;;;;;;6213645;23;20018;-74
2022/10/17 07:31:11;;;;;;;10.80;5.55;;;;;;;;;;6215544;23;20090;-75
2022/10/17 07:33:37;;;;;;;8.60;4.97;;;;;;;;;;6190036;23;20075;-74
2022/10/17 07:36:03;;;;;;;11.30;6.63;;;;;;;;;;6187363;23;20091;-73
2022/10/17 07:38:29;;;;;;;9.88;6.32;;;;;;;;;;6213218;23;20004;-72
2022/10/17 07:40:56;;;;;;;7.85;5.18;;;;;;;;;;6179055;23;20013;-73
2022/10/17 07:43:22;;;;;;;9.35;5.00;;;;;;;;;;6157562;23;20017;-71
2022/10/17 07:45:48;;;;;;;5.47;4.97;;;;;;;;;;6157998;23;20082;-72
2022/10/17 07:48:15;;;;;;;6.15;5.00;;;;;;;;;;6182409;23;20024;-73
2022/10/17 07:50:41;;;;;;;4.82;4.43;;;;;;;;;;6133357;23;20023;-73
2022/10/17 07:53:07;;;;;;;5.60;4.82;;;;;;;;;;6185112;23;20045;-73
2022/10/17 07:55:35;;;;;;;4.65;4.03;;;;;;;;;;6184147;23;20029;-73
2022/10/17 07:58:01;;;;;;;5.78;5.18;;;;;;;;;;6184472;23;20017;-73
2022/10/17 08:00:27;;;;;;;7.38;5.82;;;;;;;;;;6184093;23;20013;-73
2022/10/17 08:02:53;;;;;;;6.45;4.50;;;;;;;;;;6183709;23;20139;-73
2022/10/17 08:05:19;;;;;;;4.80;4.40;;;;;;;;;;6183064;23;20013;-71
2022/10/17 08:07:45;;;;;;;8.40;5.75;;;;;;;;;;6183207;23;20394;-71
2022/10/17 08:10:11;;;;;;;5.75;5.25;;;;;;;;;;6182069;23;20092;-71
2022/10/17 08:12:38;;;;;;;6.38;4.85;;;;;;;;;;6182183;23;20013;-72
2022/10/17 08:15:04;;;;;;;8.15;5.30;;;;;;;;;;6180851;23;20104;-72
2022/10/17 08:17:33;;;;;;;6.07;4.78;;;;;;;;;;6155305;23;20013;-71
2022/10/17 08:19:59;;;;;;;6.00;5.50;;;;;;;;;;6180847;23;20017;-72
2022/10/17 08:22:25;;;;;;;5.35;4.85;;;;;;;;;;6180431;23;20070;-72
2022/10/17 08:24:51;;;;;;;5.53;5.03;;;;;;;;;;6153104;23;20485;-71
2022/10/17 08:27:22;;;;;;;8.68;5.15;;;;;;;;;;6180550;23;20104;-72
2022/10/17 08:29:51;;;;;;;8.55;4.55;;;;;;;;;;6180657;23;20072;-72
2022/10/17 08:32:23;;;;;;;8.48;5.20;;;;;;;;;;6154323;23;20536;-73
2022/10/17 08:34:50;;;;;;;11.65;5.63;;;;;;;;;;6180661;23;20600;-73
2022/10/17 08:37:16;;;;;;;6.03;5.43;;;;;;;;;;6129403;23;20024;-73
2022/10/17 08:39:42;;;;;;;8.43;5.60;;;;;;;;;;6180538;23;20017;-73
2022/10/17 08:42:27;;;;;;;9.48;4.68;;;;;;;;;;6154184;23;20348;-73
2022/10/17 08:44:54;;;;;;;13.82;5.97;;;;;;;;;;6180290;23;20349;-72
2022/10/17 08:47:40;;;;;;;6.70;6.10;;;;;;;;;;6153245;23;20032;-73
2022/10/17 08:50:09;;;;;;;8.15;4.55;;;;;;;;;;6153562;23;20476;-73
2022/10/17 08:52:47;;;;;;;7.10;4.93;;;;;;;;;;6154788;23;20017;-74
2022/10/17 08:55:15;;;;;;;5.90;4.85;;;;;;;;;;6153226;23;20276;-74
2022/10/17 08:57:42;;;;;;;6.38;4.53;;;;;;;;;;6154082;23;20021;-73
2022/10/17 09:00:16;;;;;;;9.73;4.97;;;;;;;;;;6153543;23;20012;-72
2022/10/17 09:02:47;;;;;;;6.93;4.70;;;;;;;;;;6180294;23;20112;-72
2022/10/17 09:05:25;;;;;;;12.63;4.88;;;;;;;;;;6153859;23;20063;-72
2022/10/17 09:07:55;;;;;;;6.43;5.38;;;;;;;;;;6179999;23;20017;-73
2022/10/17 09:10:54;;;;;;;8.90;5.65;;;;;;;;;;6179881;23;20016;-72
2022/10/17 09:13:26;;;;;;;12.23;5.38;;;;;;;;;;6145579;23;20528;-72
2022/10/17 09:16:00;;;;;;;9.27;7.15;;;;;;;;;;6179837;23;20021;-73
2022/10/17 09:18:30;;;;;;;5.18;4.70;;;;;;;;;;6153091;23;20027;-72
2022/10/17 09:21:12;;;;;;;9.50;5.13;;;;;;;;;;6179621;23;20060;-72
2022/10/17 09:23:49;;;;;;;12.35;5.50;;;;;;;;;;6180048;23;20013;-73
2022/10/17 09:26:16;;;;;;;6.70;6.10;;;;;;;;;;6153579;23;20020;-72
2022/10/17 09:28:42;;;;;;;18.05;6.82;;;;;;;;;;6179719;23;20087;-73
2022/10/17 09:31:14;;;;;;;10.45;4.70;;;;;;;;;;6179943;23;20028;-74
2022/10/17 09:33:43;;;;;;;10.07;6.72;;;;;;;;;;6179926;23;20009;-73
2022/10/17 09:36:23;;;;;;;8.63;6.53;;;;;;;;;;6155340;23;20017;-74
2022/10/17 09:38:52;;;;;;;8.30;6.10;;;;;;;;;;6179963;23;20105;-73
2022/10/17 09:41:20;;;;;;;9.90;6.22;;;;;;;;;;6129487;23;20020;-73
2022/10/17 09:43:47;;;;;;;9.43;7.70;;;;;;;;;;6178540;23;20029;-75
2022/10/17 09:46:25;;;;;;;7.43;6.72;;;;;;;;;;6179702;23;20017;-79
2022/10/17 09:48:54;;;;;;;5.25;4.68;;;;;;;;;;6180812;23;20019;-79
2022/10/17 09:51:20;;;;;;;8.75;7.55;;;;;;;;;;6180210;23;20016;-77
2022/10/17 09:53:48;;;;;;;10.40;7.80;;;;;;;;;;6179875;23;20012;-76
2022/10/17 09:56:17;;;;;;;8.63;7.20;;;;;;;;;;6153701;23;20021;-79
2022/10/17 09:58:53;;;;;;;9.43;6.28;;;;;;;;;;6180419;23;20092;-75
2022/10/17 10:01:23;;;;;;;10.35;8.52;;;;;;;;;;6180202;23;20025;-74
2022/10/17 10:04:10;;;;;;;12.65;7.70;;;;;;;;;;6178720;23;20013;-78
2022/10/17 10:06:36;;;;;;;8.50;7.70;;;;;;;;;;6169338;23;20020;-78
2022/10/17 10:09:04;;;;;;;7.95;7.13;;;;;;;;;;6180536;23;20091;-78
2022/10/17 10:11:42;;;;;;;10.20;8.32;;;;;;;;;;6180363;23;20023;-75
2022/10/17 10:14:12;;;;;;;10.70;9.02;;;;;;;;;;6180644;23;20092;-78
2022/10/17 10:16:42;;;;;;;8.95;7.55;;;;;;;;;;6178449;23;20009;-75
2022/10/17 10:19:25;;;;;;;10.43;9.02;;;;;;;;;;6153578;23;20113;-77
2022/10/17 10:21:53;;;;;;;9.50;7.32;;;;;;;;;;6179156;23;20047;-77
2022/10/17 10:24:20;;;;;;;10.52;9.43;;;;;;;;;;6153062;23;20017;-74
2022/10/17 10:26:46;;;;;;;9.88;8.77;;;;;;;;;;6179710;23;20116;-73
2022/10/17 10:29:21;;;;;;;11.85;10.32;;;;;;;;;;6153237;23;20013;-74
2022/10/17 10:31:48;;;;;;;11.60;9.95;;;;;;;;;;6177683;23;20040;-72
2022/10/17 10:34:14;;;;;;;9.48;8.63;;;;;;;;;;6177638;23;20020;-72
2022/10/17 10:36:41;;;;;;;9.90;7.40;;;;;;;;;;6179261;23;20013;-72
2022/10/17 10:39:07;;;;;;;10.88;9.75;;;;;;;;;;6153258;23;20013;-73
2022/10/17 10:41:44;;;;;;;9.25;8.40;;;;;;;;;;6177893;23;20357;-72
2022/10/17 10:44:11;;;;;;;9.63;6.82;;;;;;;;;;6176690;23;20104;-74
2022/10/17 10:46:38;;;;;;;6.82;6.13;;;;;;;;;;6185436;23;20021;-72
2022/10/17 10:49:04;;;;;;;9.65;8.45;;;;;;;;;;6182626;23;20468;-72
2022/10/17 10:51:30;;;;;;;8.05;7.25;;;;;;;;;;6182596;23;20024;-74
2022/10/17 10:54:09;;;;;;;9.00;8.10;;;;;;;;;;6209291;23;20012;-74
2022/10/17 10:56:39;;;;;;;9.40;8.48;;;;;;;;;;6209285;23;20016;-74
2022/10/17 10:59:08;;;;;;;8.40;5.50;;;;;;;;;;6182980;23;20091;-75
2022/10/17 11:01:34;;;;;;;13.18;8.50;;;;;;;;;;6182429;23;20112;-75
2022/10/17 11:04:00;;;;;;;6.88;6.28;;;;;;;;;;6209414;23;20020;-74
2022/10/17 11:06:27;;;;;;;9.23;8.30;;;;;;;;;;6209353;23;20020;-73
2022/10/17 11:09:02;;;;;;;12.23;7.50;;;;;;;;;;6160258;23;20020;-73
2022/10/17 11:11:38;;;;;;;8.40;7.65;;;;;;;;;;6188071;23;20009;-72
2022/10/17 11:14:24;;;;;;;9.15;6.97;;;;;;;;;;6139746;23;20016;-73
2022/10/17 11:17:08;;;;;;;14.38;7.75;;;;;;;;;;6164148;23;20028;-73
2022/10/17 11:19:36;;;;;;;9.00;7.75;;;;;;;;;;6209287;23;20005;-74
2022/10/17 11:22:16;;;;;;;9.65;8.75;;;;;;;;;;6182666;23;20027;-73
2022/10/17 11:25:01;;;;;;;9.68;8.75;;;;;;;;;;6182872;23;20055;-73
2022/10/17 11:27:28;;;;;;;8.32;7.45;;;;;;;;;;6209788;23;20023;-73
2022/10/17 11:29:55;;;;;;;7.78;7.07;;;;;;;;;;6183323;23;20005;-73
2022/10/17 11:32:30;;;;;;;6.82;5.97;;;;;;;;;;6208959;23;20479;-72
2022/10/17 11:35:03;;;;;;;10.60;6.57;;;;;;;;;;6182345;23;20024;-73
2022/10/17 11:37:32;;;;;;;9.48;8.52;;;;;;;;;;6182899;23;20014;-74
2022/10/17 11:40:13;;;;;;;13.43;8.52;;;;;;;;;;6209531;23;20393;-74
2022/10/17 11:42:39;;;;;;;;;;;;;;;;;;6210079;23;20009;-75
2022/10/17 11:45:10;;;;;;;10.70;9.60;;;;;;;;;;6211077;23;20380;-74
2022/10/17 11:47:36;;;;;;;6.05;5.22;;;;;;;;;;6184298;23;20028;-74
2022/10/17 11:50:09;;;;;;;9.90;8.90;;;;;;;;;;6184866;23;20020;-73
2022/10/17 11:52:40;;;;;;;11.25;9.32;;;;;;;;;;6210259;23;20016;-73
2022/10/17 11:55:10;;;;;;;8.60;7.75;;;;;;;;;;6210959;23;20024;-73
2022/10/17 11:57:51;;;;;;;10.20;8.20;;;;;;;;;;6210988;23;20008;-73
2022/10/17 12:00:21;;;;;;;9.75;8.40;;;;;;;;;;6184225;23;20051;-73
2022/10/17 12:02:50;;;;;;;8.40;7.53;;;;;;;;;;6184450;23;20119;-73
2022/10/17 12:05:34;;;;;;;13.70;7.55;;;;;;;;;;6183832;23;20078;-73
2022/10/17 12:08:12;;;;;;;11.52;9.38;;;;;;;;;;6210842;23;20062;-73
2022/10/17 12:10:51;;;;;;;12.57;10.90;;;;;;;;;;6210728;23;20475;-73
2022/10/17 12:13:34;;;;;;;10.80;9.50;;;;;;;;;;6183970;23;20020;-73
2022/10/17 12:16:19;;;;;;;11.40;8.25;;;;;;;;;;6184420;23;20098;-73
2022/10/17 12:18:45;;;;;;;11.90;10.10;;;;;;;;;;6209642;23;20005;-72
2022/10/17 12:21:11;;;;;;;11.57;9.88;;;;;;;;;;6184717;23;20012;-73
2022/10/17 12:23:38;;;;;;;13.15;10.05;;;;;;;;;;6210696;23;20008;-73
2022/10/17 12:26:05;;;;;;;15.00;11.10;;;;;;;;;;6210710;23;20054;-73
2022/10/17 12:28:37;;;;;;;15.20;12.25;;;;;;;;;;6183993;23;20028;-72
2022/10/17 12:31:24;;;;;;;11.32;10.15;;;;;;;;;;6210679;23;20008;-73
2022/10/17 12:33:54;;;;;;;8.80;7.90;;;;;;;;;;6210740;23;20012;-73
2022/10/17 12:36:26;;;;;;;11.95;9.65;;;;;;;;;;6184107;23;20027;-72
2022/10/17 12:39:01;;;;;;;11.85;10.70;;;;;;;;;;6183617;23;20640;-72
2022/10/17 12:41:39;;;;;;;12.75;8.98;;;;;;;;;;6209871;23;20023;-72
2022/10/17 12:44:22;;;;;;;12.13;10.77;;;;;;;;;;6210557;23;20016;-72
2022/10/17 12:46:51;;;;;;;14.05;11.15;;;;;;;;;;6210370;23;20043;-73
2022/10/17 12:49:38;;;;;;;11.65;8.68;;;;;;;;;;6183493;23;20017;-73
2022/10/17 12:52:03;;;;;;;14.20;11.80;;;;;;;;;;6210574;23;20012;-73
2022/10/17 12:54:30;;;;;;;21.05;12.65;;;;;;;;;;6209555;23;20021;-74
2022/10/17 12:56:56;;;;;;;17.60;12.05;;;;;;;;;;6184454;23;20016;-73
2022/10/17 12:59:28;;;;;;;10.15;7.88;;;;;;;;;;6158700;23;20091;-73
2022/10/17 13:01:55;;;;;;;11.07;9.85;;;;;;;;;;6210608;23;20058;-73
2022/10/17 13:04:21;;;;;;;13.07;11.35;;;;;;;;;;6183770;23;20017;-73
2022/10/17 13:06:48;;;;;;;18.02;12.02;;;;;;;;;;6210263;23;20031;-73
2022/10/17 13:09:24;;;;;;;24.40;12.50;;;;;;;;;;6183569;23;20020;-71
2022/10/17 13:11:51;;;;;;;10.00;8.82;;;;;;;;;;6183934;23;20008;-72
2022/10/17 13:14:18;;;;;;;16.75;11.27;;;;;;;;;;6209815;23;20167;-71
2022/10/17 13:16:51;;;;;;;15.02;11.85;;;;;;;;;;6183699;23;20023;-72
2022/10/17 13:19:19;;;;;;;13.32;10.57;;;;;;;;;;6210164;23;20488;-73
2022/10/17 13:21:54;;;;;;;18.27;11.75;;;;;;;;;;6210521;23;20016;-72
2022/10/17 13:24:22;;;;;;;11.98;10.30;;;;;;;;;;6210240;23;20017;-71
2022/10/17 13:26:48;;;;;;;18.80;12.48;;;;;;;;;;6183917;23;20019;-72
2022/10/17 13:29:14;;;;;;;16.17;11.65;;;;;;;;;;6184543;23;20043;-81
2022/10/17 13:31:41;;;;;;;14.70;10.75;;;;;;;;;;6186251;23;20016;-82
2022/10/17 13:34:14;;;;;;;8.40;5.38;;;;;;;;;;6183666;23;20013;-81
2022/10/17 13:36:40;;;;;;;15.57;13.00;;;;;;;;;;6184466;23;20441;-81
2022/10/17 13:39:08;;;;;;;9.68;8.35;;;;;;;;;;6210636;23;20013;-79
2022/10/17 13:41:33;;;;;;;14.85;10.43;;;;;;;;;;6184829;23;20017;-81
2022/10/17 13:43:59;;;;;;;9.25;7.00;;;;;;;;;;6210914;23;20487;-81
2022/10/17 13:46:28;;;;;;;19.23;12.18;;;;;;;;;;6208717;23;20023;-80
2022/10/17 13:48:54;;;;;;;18.50;12.00;;;;;;;;;;6160571;23;20012;-81
2022/10/17 13:51:20;;;;;;;16.70;10.65;;;;;;;;;;6210444;23;20453;-81
2022/10/17 13:53:47;;;;;;;12.73;9.35;;;;;;;;;;6184158;23;20012;-81
2022/10/17 13:56:18;;;;;;;13.80;7.40;;;;;;;;;;6211249;23;20100;-81
2022/10/17 13:58:46;;;;;;;22.23;14.15;;;;;;;;;;6188126;23;20437;-82
2022/10/17 14:01:12;;;;;;;15.82;11.73;;;;;;;;;;6191248;23;20013;-82
2022/10/17 14:03:42;;;;;;;17.42;12.00;;;;;;;;;;6163584;23;20047;-83
2022/10/17 14:06:11;;;;;;;16.83;11.18;;;;;;;;;;6193082;23;20030;-84
2022/10/17 14:08:38;;;;;;;18.27;12.82;;;;;;;;;;6193144;23;20064;-82
2022/10/17 14:11:22;;;;;;;19.15;13.15;;;;;;;;;;6190539;23;20015;-82
2022/10/17 14:13:50;;;;;;;11.90;9.35;;;;;;;;;;6190764;23;20012;-82
2022/10/17 14:16:16;;;;;;;15.15;11.00;;;;;;;;;;6194132;23;20024;-83
2022/10/17 14:18:46;;;;;;;8.02;7.28;;;;;;;;;;6217083;23;20104;-83
2022/10/17 14:21:17;;;;;;;19.93;12.23;;;;;;;;;;6168021;23;20016;-82
2022/10/17 14:23:43;;;;;;;17.83;13.15;;;;;;;;;;6191974;23;20274;-83
2022/10/17 14:26:20;;;;;;;21.15;13.27;;;;;;;;;;6144923;23;20012;-82
2022/10/17 14:28:48;;;;;;;13.20;9.48;;;;;;;;;;6169163;23;20012;-82
2022/10/17 14:31:14;;;;;;;10.77;9.32;;;;;;;;;;6194399;23;20024;-83
2022/10/17 14:33:44;;;;;;;21.27;11.77;;;;;;;;;;6189932;23;20020;-82
2022/10/17 14:36:10;;;;;;;18.47;12.00;;;;;;;;;;6212451;23;20071;-82
2022/10/17 14:38:37;;;;;;;17.05;12.10;;;;;;;;;;6187409;23;20279;-82
2022/10/17 14:41:26;;;;;;;15.73;11.93;;;;;;;;;;6157150;23;20365;-74
2022/10/17 14:43:53;;;;;;;16.77;12.65;;;;;;;;;;6199623;23;20023;-74
2022/10/17 14:46:19;;;;;;;18.98;12.48;;;;;;;;;;6181954;23;20032;-73
2022/10/17 14:48:50;;;;;;;15.82;8.32;;;;;;;;;;6208896;23;20024;-73
2022/10/17 14:51:16;;;;;;;15.80;11.80;;;;;;;;;;6182403;23;20024;-74
2022/10/17 14:53:43;;;;;;;19.23;11.65;;;;;;;;;;6182003;23;20250;-74
2022/10/17 14:56:38;;;;;;;18.15;10.80;;;;;;;;;;6208724;23;20487;-74
2022/10/17 14:59:04;;;;;;;19.17;12.43;;;;;;;;;;6180879;23;20084;-74
2022/10/17 15:01:31;;;;;;;15.70;12.52;;;;;;;;;;6209605;23;20085;-74
2022/10/17 15:03:57;;;;;;;11.88;10.25;;;;;;;;;;6183004;23;20013;-75
2022/10/17 15:06:25;;;;;;;16.80;12.13;;;;;;;;;;6182421;23;20444;-74
2022/10/17 15:08:52;;;;;;;21.10;12.80;;;;;;;;;;6158157;23;20225;-74
2022/10/17 15:11:17;;;;;;;11.55;10.32;;;;;;;;;;6182356;23;20016;-74
2022/10/17 15:13:44;;;;;;;17.05;13.02;;;;;;;;;;6182570;23;20009;-74
2022/10/17 15:16:26;;;;;;;19.40;11.63;;;;;;;;;;6209205;23;20051;-74
2022/10/17 15:18:53;;;;;;;18.50;11.45;;;;;;;;;;6211515;23;20518;-74
2022/10/17 15:21:20;;;;;;;15.77;12.05;;;;;;;;;;6212636;23;20452;-74
2022/10/17 15:23:46;;;;;;;16.52;12.77;;;;;;;;;;6184347;23;20514;-74
2022/10/17 15:26:16;;;;;;;19.63;13.20;;;;;;;;;;6210953;23;20021;-74
2022/10/17 15:28:42;;;;;;;20.85;13.90;;;;;;;;;;6186070;23;20017;-75
2022/10/17 15:31:09;;;;;;;18.17;10.93;;;;;;;;;;6186892;23;20012;-74
2022/10/17 15:33:36;;;;;;;17.70;12.35;;;;;;;;;;6188102;23;20012;-73
2022/10/17 15:36:02;;;;;;;11.52;8.68;;;;;;;;;;6189730;23;20033;-73
2022/10/17 15:38:29;;;;;;;20.45;12.38;;;;;;;;;;6145722;23;20017;-73
2022/10/17 15:40:55;;;;;;;20.35;13.43;;;;;;;;;;6219586;23;20028;-73
2022/10/17 15:43:21;;;;;;;21.65;13.20;;;;;;;;;;6219044;23;20008;-74
2022/10/17 15:45:48;;;;;;;18.55;12.55;;;;;;;;;;6211063;23;20017;-75
2022/10/17 15:48:22;;;;;;;23.17;14.85;;;;;;;;;;6210866;23;20024;-75
2022/10/17 15:50:48;;;;;;;19.80;12.95;;;;;;;;;;6184080;23;20399;-75
2022/10/17 15:53:14;;;;;;;23.75;15.45;;;;;;;;;;6210713;23;20087;-74
2022/10/17 15:55:40;;;;;;;17.58;12.77;;;;;;;;;;6209269;23;20035;-74
2022/10/17 15:58:09;;;;;;;23.17;13.45;;;;;;;;;;6183658;23;20012;-73
2022/10/17 16:00:36;;;;;;;22.17;13.68;;;;;;;;;;6183832;23;20468;-73
2022/10/17 16:03:03;;;;;;;11.40;10.00;;;;;;;;;;6211056;23;20012;-74
2022/10/17 16:05:31;;;;;;;17.27;12.13;;;;;;;;;;6210203;23;20452;-74
2022/10/17 16:07:57;;;;;;;10.77;7.65;;;;;;;;;;6159419;23;20095;-74
2022/10/17 16:10:24;;;;;;;14.20;10.13;;;;;;;;;;6182796;23;20023;-74
2022/10/17 16:12:50;;;;;;;19.17;12.70;;;;;;;;;;6210545;23;20087;-74
2022/10/17 16:15:19;;;;;;;20.10;14.45;;;;;;;;;;6210004;23;20029;-73
2022/10/17 16:17:45;;;;;;;18.83;13.00;;;;;;;;;;6183286;23;20013;-73
2022/10/17 16:20:11;;;;;;;12.60;9.98;;;;;;;;;;6183591;23;20017;-73
2022/10/17 16:22:39;;;;;;;18.33;13.10;;;;;;;;;;6210159;23;20009;-74
2022/10/17 16:25:08;;;;;;;16.00;12.00;;;;;;;;;;6209679;23;20095;-72
2022/10/17 16:27:35;;;;;;;11.32;9.55;;;;;;;;;;6210378;23;20047;-73
2022/10/17 16:30:01;;;;;;;16.77;12.55;;;;;;;;;;6183550;23;20059;-73
2022/10/17 16:32:28;;;;;;;18.17;11.20;;;;;;;;;;6209819;23;20449;-74
2022/10/17 16:34:54;;;;;;;17.58;12.00;;;;;;;;;;6183928;23;20024;-73
2022/10/17 16:37:20;;;;;;;25.58;14.75;;;;;;;;;;6184024;23;20563;-74
2022/10/17 16:39:51;;;;;;;17.17;12.00;;;;;;;;;;6209801;23;20019;-73
2022/10/17 16:42:20;;;;;;;19.10;13.40;;;;;;;;;;6210494;23;20016;-72
2022/10/17 16:44:49;;;;;;;26.20;14.38;;;;;;;;;;6209872;23;20012;-73
2022/10/17 16:47:16;;;;;;;20.75;14.45;;;;;;;;;;6210395;23;20036;-72
2022/10/17 16:49:42;;;;;;;16.70;12.38;;;;;;;;;;6183668;23;20012;-72
2022/10/17 16:52:08;;;;;;;23.23;13.98;;;;;;;;;;6209640;23;20334;-73
2022/10/17 16:54:35;;;;;;;19.27;11.68;;;;;;;;;;6208376;23;20021;-72
2022/10/17 16:57:01;;;;;;;20.90;12.95;;;;;;;;;;6209755;23;20036;-73
2022/10/17 16:59:27;;;;;;;20.58;13.82;;;;;;;;;;6183546;23;20020;-73
2022/10/17 17:01:54;;;;;;;16.85;12.60;;;;;;;;;;6210612;23;20008;-72
2022/10/17 17:04:20;;;;;;;21.15;13.95;;;;;;;;;;6184369;23;20008;-73
2022/10/17 17:06:47;;;;;;;17.52;13.48;;;;;;;;;;6134213;23;20122;-73
2022/10/17 17:09:14;;;;;;;18.02;14.27;;;;;;;;;;6183809;23;20590;-72
2022/10/17 17:11:40;;;;;;;9.45;7.45;;;;;;;;;;6183044;23;20021;-71
2022/10/17 17:14:06;;;;;;;16.75;13.93;;;;;;;;;;6210455;23;20023;-71
2022/10/17 17:16:33;;;;;;;16.65;13.43;;;;;;;;;;6184007;23;20016;-72
2022/10/17 17:19:00;;;;;;;18.10;13.50;;;;;;;;;;6184220;23;20019;-72
2022/10/17 17:21:26;;;;;;;22.88;15.02;;;;;;;;;;6158566;23;20413;-72
2022/10/17 17:23:55;;;;;;;17.40;12.45;;;;;;;;;;6210035;23;20067;-72
2022/10/17 17:26:21;;;;;;;14.38;10.50;;;;;;;;;;6210101;23;20017;-72
2022/10/17 17:28:47;;;;;;;18.38;12.52;;;;;;;;;;6183086;23;20280;-72
2022/10/17 17:31:14;;;;;;;16.73;12.63;;;;;;;;;;6209954;23;20693;-72
2022/10/17 17:33:41;;;;;;;17.42;11.00;;;;;;;;;;6183109;23;20439;-72
2022/10/17 17:36:07;;;;;;;12.60;11.30;;;;;;;;;;6210985;23;20369;-78
2022/10/17 17:38:34;;;;;;;13.60;10.82;;;;;;;;;;6210685;23;20005;-76
2022/10/17 17:41:00;;;;;;;17.13;12.20;;;;;;;;;;6184190;23;20009;-75
2022/10/17 17:43:27;;;;;;;7.00;6.30;;;;;;;;;;6237692;23;20076;-85
2022/10/17 17:45:54;;;;;;;14.45;10.38;;;;;;;;;;6183875;23;20036;-71
2022/10/17 17:48:20;;;;;;;11.82;10.52;;;;;;;;;;6209514;23;20024;-73
2022/10/17 17:50:46;;;;;;;18.17;11.05;;;;;;;;;;6182218;23;20024;-74
2022/10/17 17:53:13;;;;;;;17.38;12.70;;;;;;;;;;6210625;23;20008;-77
2022/10/17 17:55:39;;;;;;;14.02;9.90;;;;;;;;;;6158371;23;20364;-77
2022/10/17 17:58:07;;;;;;;13.80;11.40;;;;;;;;;;6183539;23;20445;-76
2022/10/17 18:00:34;;;;;;;16.55;11.65;;;;;;;;;;6183223;23;20107;-76
2022/10/17 18:03:00;;;;;;;15.15;11.77;;;;;;;;;;6211514;23;20388;-75
2022/10/17 18:05:27;;;;;;;14.05;12.00;;;;;;;;;;6183225;23;20445;-76
2022/10/17 18:07:53;;;;;;;19.38;12.23;;;;;;;;;;6183521;23;20143;-76
2022/10/17 18:10:19;;;;;;;20.30;12.68;;;;;;;;;;6183581;23;20024;-76
2022/10/17 18:12:45;;;;;;;13.30;11.93;;;;;;;;;;6182999;23;20408;-76
2022/10/17 18:15:11;;;;;;;14.52;11.25;;;;;;;;;;6209571;23;20024;-76
2022/10/17 18:17:37;;;;;;;15.10;8.73;;;;;;;;;;6182652;23;20012;-77
2022/10/17 18:20:04;;;;;;;10.45;9.30;;;;;;;;;;6183566;23;20016;-81
2022/10/17 18:22:30;;;;;;;13.38;11.15;;;;;;;;;;6210380;23;20008;-80
2022/10/17 18:24:56;;;;;;;16.98;8.57;;;;;;;;;;6210067;23;20565;-80
2022/10/17 18:27:22;;;;;;;11.88;8.32;;;;;;;;;;6159109;23;20526;-78
2022/10/17 18:29:50;;;;;;;13.13;10.80;;;;;;;;;;6184200;23;20087;-78
2022/10/17 18:32:15;;;;;;;9.90;8.68;;;;;;;;;;6158857;23;20496;-80
2022/10/17 18:34:42;;;;;;;15.40;10.63;;;;;;;;;;6218988;23;20021;-83
2022/10/17 18:37:07;;;;;;;17.27;10.88;;;;;;;;;;6178938;23;20024;-84
2022/10/17 18:39:33;;;;;;;12.57;9.70;;;;;;;;;;6195942;23;20440;-82
2022/10/17 18:42:00;;;;;;;12.55;10.05;;;;;;;;;;6218703;23;20517;-81
2022/10/17 18:44:26;;;;;;;12.50;10.73;;;;;;;;;;6188103;23;20034;-84
2022/10/17 18:46:52;;;;;;;17.23;11.45;;;;;;;;;;6198307;23;20071;-82
2022/10/17 18:49:19;;;;;;;19.20;11.80;;;;;;;;;;6218472;23;20017;-81
2022/10/17 18:51:45;;;;;;;6.75;6.03;;;;;;;;;;6209445;23;20055;-78
2022/10/17 18:54:12;;;;;;;16.35;11.18;;;;;;;;;;6209571;23;20012;-78
2022/10/17 18:56:38;;;;;;;18.02;13.77;;;;;;;;;;6209312;23;20107;-76
2022/10/17 18:59:04;;;;;;;13.40;9.68;;;;;;;;;;6210037;23;20008;-78
2022/10/17 19:01:30;;;;;;;15.15;11.02;;;;;;;;;;6157165;23;20017;-78
2022/10/17 19:03:57;;;;;;;13.90;10.80;;;;;;;;;;6183462;23;20023;-76
2022/10/17 19:06:27;;;;;;;9.65;6.90;;;;;;;;;;6209479;23;20543;-80
2022/10/17 19:08:53;;;;;;;11.43;10.30;;;;;;;;;;6210220;23;20043;-79
2022/10/17 19:11:20;;;;;;;15.63;10.40;;;;;;;;;;6224268;23;20246;-81
2022/10/17 19:13:47;;;;;;;15.48;11.50;;;;;;;;;;6162804;23;20012;-79
2022/10/17 19:16:13;;;;;;;13.82;11.35;;;;;;;;;;6182984;23;20038;-79
2022/10/17 19:18:40;;;;;;;12.43;10.30;;;;;;;;;;6157803;23;20467;-82
2022/10/17 19:21:06;;;;;;;11.77;10.57;;;;;;;;;;6182425;23;20111;-80
2022/10/17 19:23:36;;;;;;;18.13;11.75;;;;;;;;;;6209620;23;20016;-78
2022/10/17 19:26:03;;;;;;;14.50;9.73;;;;;;;;;;6182142;23;20021;-77
2022/10/17 19:28:29;;;;;;;16.05;10.95;;;;;;;;;;6182959;23;20040;-77
2022/10/17 19:30:55;;;;;;;14.35;11.30;;;;;;;;;;6182873;23;20013;-78
2022/10/17 19:33:22;;;;;;;13.57;10.35;;;;;;;;;;6130955;23;20008;-78
2022/10/17 19:35:58;;;;;;;14.40;11.05;;;;;;;;;;6151948;23;20048;-80
2022/10/17 19:38:24;;;;;;;14.73;9.05;;;;;;;;;;6181331;23;20013;-75
2022/10/17 19:40:50;;;;;;;10.02;7.20;;;;;;;;;;6182344;23;20012;-75
2022/10/17 19:43:16;;;;;;;10.38;8.23;;;;;;;;;;6209313;23;20009;-76
2022/10/17 19:45:42;;;;;;;14.77;11.20;;;;;;;;;;6208313;23;20023;-76
2022/10/17 19:48:08;;;;;;;15.23;9.85;;;;;;;;;;6182481;23;20078;-80
2022/10/17 19:50:34;;;;;;;17.90;10.38;;;;;;;;;;6159254;23;20013;-81
2022/10/17 19:53:00;;;;;;;18.70;11.23;;;;;;;;;;6213051;23;20091;-80
2022/10/17 19:55:27;;;;;;;11.40;10.02;;;;;;;;;;6165198;23;20021;-81
2022/10/17 19:57:53;;;;;;;13.25;10.68;;;;;;;;;;6225249;23;20016;-81
2022/10/17 20:00:20;;;;;;;16.42;10.65;;;;;;;;;;6173713;23;20016;-81
2022/10/17 20:02:46;;;;;;;14.90;11.90;;;;;;;;;;6197614;23;20008;-82
2022/10/17 20:05:13;;;;;;;15.63;10.82;;;;;;;;;;6191362;23;20222;-81
2022/10/17 20:07:39;;;;;;;14.35;11.65;;;;;;;;;;6185771;23;20468;-81
2022/10/17 20:10:06;;;;;;;17.17;10.50;;;;;;;;;;6168003;23;20020;-80
2022/10/17 20:12:32;;;;;;;13.68;11.13;;;;;;;;;;6180995;23;20009;-80
2022/10/17 20:14:58;;;;;;;15.73;9.80;;;;;;;;;;6184050;23;20027;-81
2022/10/17 20:17:24;;;;;;;17.48;11.45;;;;;;;;;;6210997;23;20012;-80
2022/10/17 20:19:50;;;;;;;16.80;10.38;;;;;;;;;;6211476;23;20017;-80
2022/10/17 20:22:16;;;;;;;11.27;8.95;;;;;;;;;;6183927;23;20066;-78
2022/10/17 20:24:43;;;;;;;13.98;10.90;;;;;;;;;;6190507;23;20023;-76
2022/10/17 20:27:10;;;;;;;14.43;10.55;;;;;;;;;;6182391;23;20044;-77
2022/10/17 20:29:35;;;;;;;18.95;11.70;;;;;;;;;;6208957;23;20016;-77
2022/10/17 20:32:02;;;;;;;16.55;11.57;;;;;;;;;;6210831;23;20039;-77
2022/10/17 20:34:33;;;;;;;17.33;11.77;;;;;;;;;;6183517;23;20027;-76
2022/10/17 20:37:00;;;;;;;19.02;12.50;;;;;;;;;;6183370;23;20402;-76
2022/10/17 20:39:26;;;;;;;16.73;11.40;;;;;;;;;;6210245;23;20023;-76
2022/10/17 20:41:53;;;;;;;20.77;12.43;;;;;;;;;;6184326;23;20051;-77
2022/10/17 20:44:19;;;;;;;15.35;12.55;;;;;;;;;;6211026;23;20055;-76
2022/10/17 20:46:45;;;;;;;20.83;12.70;;;;;;;;;;6183372;23;20029;-75
2022/10/17 20:49:15;;;;;;;14.82;11.55;;;;;;;;;;6179568;23;20520;-76
2022/10/17 20:51:41;;;;;;;16.85;11.52;;;;;;;;;;6204346;23;20017;-75
2022/10/17 20:54:07;;;;;;;18.45;12.40;;;;;;;;;;6210892;23;20467;-76
2022/10/17 20:56:34;;;;;;;15.48;9.80;;;;;;;;;;6210049;23;20009;-77
2022/10/17 20:59:04;;;;;;;19.60;13.55;;;;;;;;;;6211676;23;20005;-79
2022/10/17 21:01:30;;;;;;;19.98;12.88;;;;;;;;;;6210740;23;20078;-78
2022/10/17 21:03:56;;;;;;;14.02;10.63;;;;;;;;;;6211032;23;20016;-76
2022/10/17 21:06:22;;;;;;;18.35;13.15;;;;;;;;;;6217234;23;20018;-77
2022/10/17 21:08:49;;;;;;;17.27;13.88;;;;;;;;;;6190932;23;20067;-77
2022/10/17 21:11:16;;;;;;;20.20;14.23;;;;;;;;;;6158871;23;20090;-77
2022/10/17 21:13:42;;;;;;;17.00;12.75;;;;;;;;;;6184025;23;20016;-77
2022/10/17 21:16:12;;;;;;;17.73;12.60;;;;;;;;;;6184618;23;20031;-76
2022/10/17 21:18:38;;;;;;;16.40;13.25;;;;;;;;;;6159982;23;20046;-78
2022/10/17 21:21:05;;;;;;;16.45;11.93;;;;;;;;;;6135573;23;20017;-78
2022/10/17 21:23:31;;;;;;;23.55;12.68;;;;;;;;;;6185348;23;20040;-79
2022/10/17 21:26:00;;;;;;;18.75;12.88;;;;;;;;;;6211631;23;20023;-78